sensor_id;sensor_type;location;lat;lon;timestamp;P1;durP1;ratioP1;P2;durP2;ratioP2
74939;SDS011;63505;45.226;37.908;2022-10-10T00:00:01;49.55;;;20.90;;
74939;SDS011;63505;45.226;37.908;2022-10-10T00:02:29;51.20;;;21.90;;
74939;SDS011;63505;45.226;37.908;2022-10-10T00:04:55;51.00;;;21.10;;
74939;SDS011;63505;45.226;37.908;2022-10-10T00:07:21;51.40;;;22.95;;
74939;SDS011;63505;45.226;37.908;2022-10-10T00:09:47;42.38;;;20.65;;
74939;SDS011;63505;45.226;37.908;2022-10-10T00:12:12;40.03;;;20.67;;
74939;SDS011;63505;45.226;37.908;2022-10-10T00:14:38;40.42;;;19.05;;
74939;SDS011;63505;45.226;37.908;2022-10-10T00:17:04;43.15;;;19.88;;
74939;SDS011;63505;45.226;37.908;2022-10-10T00:19:30;41.10;;;17.95;;
74939;SDS011;63505;45.226;37.908;2022-10-10T00:21:56;37.78;;;20.35;;
74939;SDS011;63505;45.226;37.908;2022-10-10T00:24:22;41.08;;;20.13;;
74939;SDS011;63505;45.226;37.908;2022-10-10T00:26:48;32.63;;;19.55;;
74939;SDS011;63505;45.226;37.908;2022-10-10T00:29:14;35.92;;;19.77;;
74939;SDS011;63505;45.226;37.908;2022-10-10T00:31:40;36.28;;;18.15;;
74939;SDS011;63505;45.226;37.908;2022-10-10T00:34:05;39.83;;;18.20;;
74939;SDS011;63505;45.226;37.908;2022-10-10T00:36:31;40.00;;;19.02;;
74939;SDS011;63505;45.226;37.908;2022-10-10T00:38:57;42.35;;;20.75;;
74939;SDS011;63505;45.226;37.908;2022-10-10T00:41:23;52.40;;;20.58;;
74939;SDS011;63505;45.226;37.908;2022-10-10T00:44:01;47.55;;;22.90;;
74939;SDS011;63505;45.226;37.908;2022-10-10T00:48:58;44.15;;;20.33;;
74939;SDS011;63505;45.226;37.908;2022-10-10T00:51:24;47.60;;;23.23;;
74939;SDS011;63505;45.226;37.908;2022-10-10T00:53:51;48.67;;;23.85;;
74939;SDS011;63505;45.226;37.908;2022-10-10T00:56:24;47.20;;;21.92;;
74939;SDS011;63505;45.226;37.908;2022-10-10T00:58:55;53.33;;;22.90;;
74939;SDS011;63505;45.226;37.908;2022-10-10T01:01:24;44.03;;;23.00;;
74939;SDS011;63505;45.226;37.908;2022-10-10T01:03:52;45.72;;;22.10;;
74939;SDS011;63505;45.226;37.908;2022-10-10T01:06:21;44.63;;;21.58;;
74939;SDS011;63505;45.226;37.908;2022-10-10T01:08:47;43.05;;;20.42;;
74939;SDS011;63505;45.226;37.908;2022-10-10T01:13:56;42.55;;;21.02;;
74939;SDS011;63505;45.226;37.908;2022-10-10T01:17:06;36.28;;;18.75;;
74939;SDS011;63505;45.226;37.908;2022-10-10T01:27:53;33.80;;;17.88;;
74939;SDS011;63505;45.226;37.908;2022-10-10T01:30:23;38.75;;;16.88;;
74939;SDS011;63505;45.226;37.908;2022-10-10T01:32:53;38.28;;;18.92;;
74939;SDS011;63505;45.226;37.908;2022-10-10T01:41:02;39.95;;;18.92;;
74939;SDS011;63505;45.226;37.908;2022-10-10T01:43:34;41.05;;;18.73;;
74939;SDS011;63505;45.226;37.908;2022-10-10T01:46:12;39.28;;;19.42;;
74939;SDS011;63505;45.226;37.908;2022-10-10T01:48:40;36.30;;;19.75;;
74939;SDS011;63505;45.226;37.908;2022-10-10T01:54:05;32.33;;;16.85;;
74939;SDS011;63505;45.226;37.908;2022-10-10T01:56:47;29.25;;;17.05;;
74939;SDS011;63505;45.226;37.908;2022-10-10T02:05:20;32.50;;;16.65;;
74939;SDS011;63505;45.226;37.908;2022-10-10T02:07:52;30.92;;;16.60;;
74939;SDS011;63505;45.226;37.908;2022-10-10T02:10:24;32.60;;;16.90;;
74939;SDS011;63505;45.226;37.908;2022-10-10T02:12:54;31.65;;;16.75;;
74939;SDS011;63505;45.226;37.908;2022-10-10T02:15:24;28.50;;;16.50;;
74939;SDS011;63505;45.226;37.908;2022-10-10T02:17:53;29.30;;;16.67;;
74939;SDS011;63505;45.226;37.908;2022-10-10T02:22:49;28.23;;;14.70;;
74939;SDS011;63505;45.226;37.908;2022-10-10T02:25:16;24.73;;;14.77;;
74939;SDS011;63505;45.226;37.908;2022-10-10T02:27:57;23.38;;;14.38;;
74939;SDS011;63505;45.226;37.908;2022-10-10T02:30:31;24.63;;;14.88;;
74939;SDS011;63505;45.226;37.908;2022-10-10T02:33:00;26.70;;;13.30;;
74939;SDS011;63505;45.226;37.908;2022-10-10T02:35:30;21.17;;;12.82;;
74939;SDS011;63505;45.226;37.908;2022-10-10T02:38:00;20.60;;;12.60;;
74939;SDS011;63505;45.226;37.908;2022-10-10T02:40:28;22.08;;;13.07;;
74939;SDS011;63505;45.226;37.908;2022-10-10T02:42:57;19.42;;;12.18;;
74939;SDS011;63505;45.226;37.908;2022-10-10T02:45:25;23.73;;;13.23;;
74939;SDS011;63505;45.226;37.908;2022-10-10T02:47:53;20.40;;;11.45;;
74939;SDS011;63505;45.226;37.908;2022-10-10T02:50:20;16.70;;;10.38;;
74939;SDS011;63505;45.226;37.908;2022-10-10T02:52:47;22.45;;;12.00;;
74939;SDS011;63505;45.226;37.908;2022-10-10T02:55:13;19.73;;;12.05;;
74939;SDS011;63505;45.226;37.908;2022-10-10T02:57:39;19.73;;;11.75;;
74939;SDS011;63505;45.226;37.908;2022-10-10T03:00:05;15.77;;;10.80;;
74939;SDS011;63505;45.226;37.908;2022-10-10T03:02:32;20.63;;;12.43;;
74939;SDS011;63505;45.226;37.908;2022-10-10T03:04:58;17.77;;;11.63;;
74939;SDS011;63505;45.226;37.908;2022-10-10T03:07:24;22.85;;;11.27;;
74939;SDS011;63505;45.226;37.908;2022-10-10T03:09:50;21.05;;;11.80;;
74939;SDS011;63505;45.226;37.908;2022-10-10T03:12:17;19.08;;;10.65;;
74939;SDS011;63505;45.226;37.908;2022-10-10T03:14:43;21.05;;;11.52;;
74939;SDS011;63505;45.226;37.908;2022-10-10T03:17:09;17.45;;;9.63;;
74939;SDS011;63505;45.226;37.908;2022-10-10T03:19:35;19.95;;;10.27;;
74939;SDS011;63505;45.226;37.908;2022-10-10T03:22:01;18.42;;;10.68;;
74939;SDS011;63505;45.226;37.908;2022-10-10T03:24:27;16.35;;;10.25;;
74939;SDS011;63505;45.226;37.908;2022-10-10T03:26:53;26.08;;;10.95;;
74939;SDS011;63505;45.226;37.908;2022-10-10T03:29:19;16.90;;;9.02;;
74939;SDS011;63505;45.226;37.908;2022-10-10T03:31:45;18.35;;;10.00;;
74939;SDS011;63505;45.226;37.908;2022-10-10T03:34:11;14.18;;;9.32;;
74939;SDS011;63505;45.226;37.908;2022-10-10T03:36:37;18.98;;;10.00;;
74939;SDS011;63505;45.226;37.908;2022-10-10T03:39:03;17.20;;;10.55;;
74939;SDS011;63505;45.226;37.908;2022-10-10T03:41:29;21.30;;;10.65;;
74939;SDS011;63505;45.226;37.908;2022-10-10T03:43:55;22.23;;;11.13;;
74939;SDS011;63505;45.226;37.908;2022-10-10T03:46:22;18.10;;;11.10;;
74939;SDS011;63505;45.226;37.908;2022-10-10T03:48:47;20.73;;;10.60;;
74939;SDS011;63505;45.226;37.908;2022-10-10T03:51:14;17.95;;;10.52;;
74939;SDS011;63505;45.226;37.908;2022-10-10T03:53:40;26.27;;;11.10;;
74939;SDS011;63505;45.226;37.908;2022-10-10T03:56:06;17.33;;;10.90;;
74939;SDS011;63505;45.226;37.908;2022-10-10T03:58:32;20.50;;;11.05;;
74939;SDS011;63505;45.226;37.908;2022-10-10T04:00:59;20.95;;;10.77;;
74939;SDS011;63505;45.226;37.908;2022-10-10T04:03:26;20.17;;;10.82;;
74939;SDS011;63505;45.226;37.908;2022-10-10T04:05:53;18.70;;;10.77;;
74939;SDS011;63505;45.226;37.908;2022-10-10T04:08:19;22.55;;;11.13;;
74939;SDS011;63505;45.226;37.908;2022-10-10T04:10:49;22.23;;;11.63;;
74939;SDS011;63505;45.226;37.908;2022-10-10T04:13:16;21.05;;;11.40;;
74939;SDS011;63505;45.226;37.908;2022-10-10T04:15:42;18.92;;;10.27;;
74939;SDS011;63505;45.226;37.908;2022-10-10T04:18:08;16.67;;;10.30;;
74939;SDS011;63505;45.226;37.908;2022-10-10T04:20:34;16.88;;;9.07;;
74939;SDS011;63505;45.226;37.908;2022-10-10T04:23:00;20.05;;;9.68;;
74939;SDS011;63505;45.226;37.908;2022-10-10T04:25:27;15.98;;;9.95;;
74939;SDS011;63505;45.226;37.908;2022-10-10T04:27:52;17.13;;;10.45;;
74939;SDS011;63505;45.226;37.908;2022-10-10T04:30:18;17.27;;;9.73;;
74939;SDS011;63505;45.226;37.908;2022-10-10T04:32:44;22.55;;;10.75;;
74939;SDS011;63505;45.226;37.908;2022-10-10T04:35:10;18.75;;;10.05;;
74939;SDS011;63505;45.226;37.908;2022-10-10T04:37:37;17.02;;;10.45;;
74939;SDS011;63505;45.226;37.908;2022-10-10T04:40:03;19.67;;;10.90;;
74939;SDS011;63505;45.226;37.908;2022-10-10T04:42:29;19.67;;;10.55;;
74939;SDS011;63505;45.226;37.908;2022-10-10T04:44:56;19.27;;;9.85;;
74939;SDS011;63505;45.226;37.908;2022-10-10T04:47:21;20.73;;;10.55;;
74939;SDS011;63505;45.226;37.908;2022-10-10T04:49:48;20.08;;;10.73;;
74939;SDS011;63505;45.226;37.908;2022-10-10T04:52:14;18.17;;;9.57;;
74939;SDS011;63505;45.226;37.908;2022-10-10T04:54:40;21.85;;;10.95;;
74939;SDS011;63505;45.226;37.908;2022-10-10T04:57:05;16.38;;;10.20;;
74939;SDS011;63505;45.226;37.908;2022-10-10T04:59:31;16.35;;;9.95;;
74939;SDS011;63505;45.226;37.908;2022-10-10T05:01:57;18.90;;;10.40;;
74939;SDS011;63505;45.226;37.908;2022-10-10T05:04:23;22.80;;;11.38;;
74939;SDS011;63505;45.226;37.908;2022-10-10T05:06:51;22.02;;;12.07;;
74939;SDS011;63505;45.226;37.908;2022-10-10T05:09:17;23.05;;;10.98;;
74939;SDS011;63505;45.226;37.908;2022-10-10T05:11:43;26.48;;;12.07;;
74939;SDS011;63505;45.226;37.908;2022-10-10T05:14:09;24.95;;;12.40;;
74939;SDS011;63505;45.226;37.908;2022-10-10T05:16:35;21.75;;;12.95;;
74939;SDS011;63505;45.226;37.908;2022-10-10T05:19:00;21.83;;;11.85;;
74939;SDS011;63505;45.226;37.908;2022-10-10T05:21:26;21.42;;;11.68;;
74939;SDS011;63505;45.226;37.908;2022-10-10T05:23:53;23.73;;;12.02;;
74939;SDS011;63505;45.226;37.908;2022-10-10T05:26:19;19.45;;;11.13;;
74939;SDS011;63505;45.226;37.908;2022-10-10T05:28:45;22.05;;;11.85;;
74939;SDS011;63505;45.226;37.908;2022-10-10T05:31:11;21.65;;;11.95;;
74939;SDS011;63505;45.226;37.908;2022-10-10T05:33:38;22.65;;;13.05;;
74939;SDS011;63505;45.226;37.908;2022-10-10T05:36:05;20.10;;;12.93;;
74939;SDS011;63505;45.226;37.908;2022-10-10T05:38:33;18.98;;;11.30;;
74939;SDS011;63505;45.226;37.908;2022-10-10T05:40:59;20.88;;;12.13;;
74939;SDS011;63505;45.226;37.908;2022-10-10T05:43:25;21.50;;;11.70;;
74939;SDS011;63505;45.226;37.908;2022-10-10T05:45:51;21.90;;;11.20;;
74939;SDS011;63505;45.226;37.908;2022-10-10T05:48:17;21.05;;;10.95;;
74939;SDS011;63505;45.226;37.908;2022-10-10T05:50:50;19.90;;;11.55;;
74939;SDS011;63505;45.226;37.908;2022-10-10T05:53:20;18.45;;;11.00;;
74939;SDS011;63505;45.226;37.908;2022-10-10T05:55:47;22.30;;;10.93;;
74939;SDS011;63505;45.226;37.908;2022-10-10T05:58:13;18.55;;;11.18;;
74939;SDS011;63505;45.226;37.908;2022-10-10T06:00:40;21.38;;;10.40;;
74939;SDS011;63505;45.226;37.908;2022-10-10T06:03:07;18.50;;;10.07;;
74939;SDS011;63505;45.226;37.908;2022-10-10T06:05:37;22.15;;;11.23;;
74939;SDS011;63505;45.226;37.908;2022-10-10T06:08:03;17.05;;;9.63;;
74939;SDS011;63505;45.226;37.908;2022-10-10T06:10:29;18.85;;;10.57;;
74939;SDS011;63505;45.226;37.908;2022-10-10T06:12:58;16.38;;;8.85;;
74939;SDS011;63505;45.226;37.908;2022-10-10T06:15:23;16.60;;;8.65;;
74939;SDS011;63505;45.226;37.908;2022-10-10T06:17:49;13.63;;;8.32;;
74939;SDS011;63505;45.226;37.908;2022-10-10T06:20:15;22.65;;;9.18;;
74939;SDS011;63505;45.226;37.908;2022-10-10T06:22:41;15.07;;;8.25;;
74939;SDS011;63505;45.226;37.908;2022-10-10T06:25:07;12.93;;;8.52;;
74939;SDS011;63505;45.226;37.908;2022-10-10T06:27:33;20.65;;;9.57;;
74939;SDS011;63505;45.226;37.908;2022-10-10T06:29:59;15.48;;;8.52;;
74939;SDS011;63505;45.226;37.908;2022-10-10T06:32:25;13.57;;;7.85;;
74939;SDS011;63505;45.226;37.908;2022-10-10T06:34:51;14.18;;;7.63;;
74939;SDS011;63505;45.226;37.908;2022-10-10T06:37:17;17.05;;;7.28;;
74939;SDS011;63505;45.226;37.908;2022-10-10T06:39:43;16.60;;;7.70;;
74939;SDS011;63505;45.226;37.908;2022-10-10T06:42:09;13.40;;;7.45;;
74939;SDS011;63505;45.226;37.908;2022-10-10T06:44:35;15.40;;;8.23;;
74939;SDS011;63505;45.226;37.908;2022-10-10T06:47:01;11.70;;;7.30;;
74939;SDS011;63505;45.226;37.908;2022-10-10T06:49:27;18.00;;;6.90;;
74939;SDS011;63505;45.226;37.908;2022-10-10T06:51:54;15.98;;;7.43;;
74939;SDS011;63505;45.226;37.908;2022-10-10T06:54:20;11.52;;;7.82;;
74939;SDS011;63505;45.226;37.908;2022-10-10T06:56:46;11.90;;;7.43;;
74939;SDS011;63505;45.226;37.908;2022-10-10T06:59:11;11.75;;;8.35;;
74939;SDS011;63505;45.226;37.908;2022-10-10T07:01:37;18.02;;;8.40;;
74939;SDS011;63505;45.226;37.908;2022-10-10T07:04:03;16.25;;;9.13;;
74939;SDS011;63505;45.226;37.908;2022-10-10T07:06:30;16.85;;;8.48;;
74939;SDS011;63505;45.226;37.908;2022-10-10T07:08:56;18.17;;;9.57;;
74939;SDS011;63505;45.226;37.908;2022-10-10T07:11:22;13.65;;;8.55;;
74939;SDS011;63505;45.226;37.908;2022-10-10T07:13:49;19.20;;;9.25;;
74939;SDS011;63505;45.226;37.908;2022-10-10T07:16:18;16.38;;;9.80;;
74939;SDS011;63505;45.226;37.908;2022-10-10T07:18:44;18.80;;;9.82;;
74939;SDS011;63505;45.226;37.908;2022-10-10T07:21:10;15.43;;;9.50;;
74939;SDS011;63505;45.226;37.908;2022-10-10T07:23:35;18.02;;;9.95;;
74939;SDS011;63505;45.226;37.908;2022-10-10T07:26:03;15.40;;;9.18;;
74939;SDS011;63505;45.226;37.908;2022-10-10T07:30:59;20.55;;;10.95;;
74939;SDS011;63505;45.226;37.908;2022-10-10T07:33:32;17.02;;;10.50;;
74939;SDS011;63505;45.226;37.908;2022-10-10T07:36:01;16.75;;;11.60;;
74939;SDS011;63505;45.226;37.908;2022-10-10T07:38:27;19.75;;;11.90;;
74939;SDS011;63505;45.226;37.908;2022-10-10T07:40:53;22.30;;;13.27;;
74939;SDS011;63505;45.226;37.908;2022-10-10T07:43:19;22.08;;;13.05;;
74939;SDS011;63505;45.226;37.908;2022-10-10T07:45:45;20.48;;;13.02;;
74939;SDS011;63505;45.226;37.908;2022-10-10T07:48:11;22.65;;;13.55;;
74939;SDS011;63505;45.226;37.908;2022-10-10T07:50:40;21.85;;;12.73;;
74939;SDS011;63505;45.226;37.908;2022-10-10T07:53:08;21.77;;;13.60;;
74939;SDS011;63505;45.226;37.908;2022-10-10T07:55:38;22.73;;;13.95;;
74939;SDS011;63505;45.226;37.908;2022-10-10T07:58:05;24.92;;;15.23;;
74939;SDS011;63505;45.226;37.908;2022-10-10T08:00:31;24.77;;;14.30;;
74939;SDS011;63505;45.226;37.908;2022-10-10T08:02:59;25.23;;;13.48;;
74939;SDS011;63505;45.226;37.908;2022-10-10T08:05:25;20.83;;;12.95;;
74939;SDS011;63505;45.226;37.908;2022-10-10T08:07:51;20.33;;;12.73;;
74939;SDS011;63505;45.226;37.908;2022-10-10T08:10:17;24.98;;;12.70;;
74939;SDS011;63505;45.226;37.908;2022-10-10T08:12:43;24.45;;;14.23;;
74939;SDS011;63505;45.226;37.908;2022-10-10T08:15:09;23.33;;;12.32;;
74939;SDS011;63505;45.226;37.908;2022-10-10T08:17:36;22.33;;;13.82;;
74939;SDS011;63505;45.226;37.908;2022-10-10T08:20:02;16.30;;;9.77;;
74939;SDS011;63505;45.226;37.908;2022-10-10T08:22:28;16.73;;;10.07;;
74939;SDS011;63505;45.226;37.908;2022-10-10T08:24:54;17.63;;;10.30;;
74939;SDS011;63505;45.226;37.908;2022-10-10T08:27:20;17.73;;;11.90;;
74939;SDS011;63505;45.226;37.908;2022-10-10T08:29:46;23.35;;;10.88;;
74939;SDS011;63505;45.226;37.908;2022-10-10T08:32:12;15.88;;;9.60;;
74939;SDS011;63505;45.226;37.908;2022-10-10T08:34:38;18.83;;;9.90;;
74939;SDS011;63505;45.226;37.908;2022-10-10T08:37:04;16.13;;;9.15;;
74939;SDS011;63505;45.226;37.908;2022-10-10T08:39:30;17.98;;;11.25;;
74939;SDS011;63505;45.226;37.908;2022-10-10T08:41:58;17.15;;;10.60;;
74939;SDS011;63505;45.226;37.908;2022-10-10T08:47:40;14.52;;;8.20;;
74939;SDS011;63505;45.226;37.908;2022-10-10T08:50:30;20.42;;;9.30;;
74939;SDS011;63505;45.226;37.908;2022-10-10T08:55:47;16.17;;;9.43;;
74939;SDS011;63505;45.226;37.908;2022-10-10T09:00:50;14.93;;;9.25;;
74939;SDS011;63505;45.226;37.908;2022-10-10T09:03:40;16.45;;;9.82;;
74939;SDS011;63505;45.226;37.908;2022-10-10T09:06:22;17.08;;;10.07;;
74939;SDS011;63505;45.226;37.908;2022-10-10T09:12:13;22.35;;;12.73;;
74939;SDS011;63505;45.226;37.908;2022-10-10T09:17:30;20.23;;;12.43;;
74939;SDS011;63505;45.226;37.908;2022-10-10T09:23:15;20.98;;;12.43;;
74939;SDS011;63505;45.226;37.908;2022-10-10T09:25:52;20.45;;;12.63;;
74939;SDS011;63505;45.226;37.908;2022-10-10T09:28:34;19.73;;;11.98;;
74939;SDS011;63505;45.226;37.908;2022-10-10T09:31:14;21.50;;;11.82;;
74939;SDS011;63505;45.226;37.908;2022-10-10T09:33:52;18.88;;;10.52;;
74939;SDS011;63505;45.226;37.908;2022-10-10T09:36:25;18.20;;;12.35;;
74939;SDS011;63505;45.226;37.908;2022-10-10T09:39:00;16.85;;;10.93;;
74939;SDS011;63505;45.226;37.908;2022-10-10T09:41:34;21.42;;;11.88;;
74939;SDS011;63505;45.226;37.908;2022-10-10T09:44:11;18.02;;;9.93;;
74939;SDS011;63505;45.226;37.908;2022-10-10T09:46:39;21.90;;;12.25;;
74939;SDS011;63505;45.226;37.908;2022-10-10T09:49:05;14.85;;;9.68;;
74939;SDS011;63505;45.226;37.908;2022-10-10T09:51:32;16.80;;;9.43;;
74939;SDS011;63505;45.226;37.908;2022-10-10T09:53:58;15.77;;;11.45;;
74939;SDS011;63505;45.226;37.908;2022-10-10T09:56:26;15.55;;;10.30;;
74939;SDS011;63505;45.226;37.908;2022-10-10T09:58:55;14.70;;;11.05;;
74939;SDS011;63505;45.226;37.908;2022-10-10T10:01:26;20.50;;;10.82;;
74939;SDS011;63505;45.226;37.908;2022-10-10T10:06:34;14.07;;;9.00;;
74939;SDS011;63505;45.226;37.908;2022-10-10T10:09:02;20.27;;;10.70;;
74939;SDS011;63505;45.226;37.908;2022-10-10T10:11:31;16.35;;;10.10;;
74939;SDS011;63505;45.226;37.908;2022-10-10T10:14:00;15.75;;;10.25;;
74939;SDS011;63505;45.226;37.908;2022-10-10T10:16:34;15.65;;;9.63;;
74939;SDS011;63505;45.226;37.908;2022-10-10T10:19:03;15.13;;;9.63;;
74939;SDS011;63505;45.226;37.908;2022-10-10T10:21:37;19.77;;;10.98;;
74939;SDS011;63505;45.226;37.908;2022-10-10T10:24:21;14.88;;;9.75;;
74939;SDS011;63505;45.226;37.908;2022-10-10T10:26:53;13.20;;;8.10;;
74939;SDS011;63505;45.226;37.908;2022-10-10T10:29:25;12.07;;;7.72;;
74939;SDS011;63505;45.226;37.908;2022-10-10T10:34:41;12.20;;;8.32;;
74939;SDS011;63505;45.226;37.908;2022-10-10T10:50:47;14.05;;;7.10;;
74939;SDS011;63505;45.226;37.908;2022-10-10T10:53:36;11.40;;;6.35;;
74939;SDS011;63505;45.226;37.908;2022-10-10T10:59:05;10.35;;;7.65;;
74939;SDS011;63505;45.226;37.908;2022-10-10T11:01:42;11.52;;;7.03;;
74939;SDS011;63505;45.226;37.908;2022-10-10T11:07:31;13.60;;;7.25;;
74939;SDS011;63505;45.226;37.908;2022-10-10T11:15:15;17.85;;;8.20;;
74939;SDS011;63505;45.226;37.908;2022-10-10T11:17:57;13.60;;;8.55;;
74939;SDS011;63505;45.226;37.908;2022-10-10T11:20:51;12.25;;;8.20;;
74939;SDS011;63505;45.226;37.908;2022-10-10T11:23:33;12.48;;;7.32;;
74939;SDS011;63505;45.226;37.908;2022-10-10T11:26:09;11.95;;;6.57;;
74939;SDS011;63505;45.226;37.908;2022-10-10T11:28:45;13.27;;;7.50;;
74939;SDS011;63505;45.226;37.908;2022-10-10T11:36:47;18.02;;;8.45;;
74939;SDS011;63505;45.226;37.908;2022-10-10T11:39:15;13.52;;;6.55;;
74939;SDS011;63505;45.226;37.908;2022-10-10T11:41:47;11.85;;;5.93;;
74939;SDS011;63505;45.226;37.908;2022-10-10T11:44:35;13.30;;;6.53;;
74939;SDS011;63505;45.226;37.908;2022-10-10T11:47:12;13.25;;;6.63;;
74939;SDS011;63505;45.226;37.908;2022-10-10T11:55:36;13.90;;;6.93;;
74939;SDS011;63505;45.226;37.908;2022-10-10T12:00:45;10.35;;;6.60;;
74939;SDS011;63505;45.226;37.908;2022-10-10T12:03:15;11.80;;;7.20;;
74939;SDS011;63505;45.226;37.908;2022-10-10T12:05:46;8.35;;;5.63;;
74939;SDS011;63505;45.226;37.908;2022-10-10T12:08:36;12.38;;;6.15;;
74939;SDS011;63505;45.226;37.908;2022-10-10T12:11:06;8.80;;;6.15;;
74939;SDS011;63505;45.226;37.908;2022-10-10T12:13:40;9.55;;;5.93;;
74939;SDS011;63505;45.226;37.908;2022-10-10T12:16:18;9.02;;;6.13;;
74939;SDS011;63505;45.226;37.908;2022-10-10T12:18:50;8.88;;;6.43;;
74939;SDS011;63505;45.226;37.908;2022-10-10T12:21:25;8.80;;;6.13;;
74939;SDS011;63505;45.226;37.908;2022-10-10T12:26:25;10.43;;;6.45;;
74939;SDS011;63505;45.226;37.908;2022-10-10T12:32:09;11.55;;;5.65;;
74939;SDS011;63505;45.226;37.908;2022-10-10T12:42:36;10.98;;;6.55;;
74939;SDS011;63505;45.226;37.908;2022-10-10T12:47:56;9.73;;;5.78;;
74939;SDS011;63505;45.226;37.908;2022-10-10T12:50:28;8.40;;;4.53;;
74939;SDS011;63505;45.226;37.908;2022-10-10T12:53:02;7.00;;;4.90;;
74939;SDS011;63505;45.226;37.908;2022-10-10T12:55:49;12.95;;;5.45;;
74939;SDS011;63505;45.226;37.908;2022-10-10T12:58:31;10.65;;;6.00;;
74939;SDS011;63505;45.226;37.908;2022-10-10T13:01:03;8.10;;;5.13;;
74939;SDS011;63505;45.226;37.908;2022-10-10T13:06:08;11.75;;;4.05;;
74939;SDS011;63505;45.226;37.908;2022-10-10T13:08:45;9.02;;;4.80;;
74939;SDS011;63505;45.226;37.908;2022-10-10T13:11:13;9.63;;;5.60;;
74939;SDS011;63505;45.226;37.908;2022-10-10T13:13:47;6.80;;;3.85;;
74939;SDS011;63505;45.226;37.908;2022-10-10T13:16:16;9.57;;;4.55;;
74939;SDS011;63505;45.226;37.908;2022-10-10T13:21:21;7.40;;;4.45;;
74939;SDS011;63505;45.226;37.908;2022-10-10T13:23:51;8.23;;;4.53;;
74939;SDS011;63505;45.226;37.908;2022-10-10T13:28:46;9.13;;;4.70;;
74939;SDS011;63505;45.226;37.908;2022-10-10T13:31:12;9.82;;;5.13;;
74939;SDS011;63505;45.226;37.908;2022-10-10T13:33:39;10.57;;;4.75;;
74939;SDS011;63505;45.226;37.908;2022-10-10T13:36:06;8.15;;;4.00;;
74939;SDS011;63505;45.226;37.908;2022-10-10T13:38:42;8.10;;;4.50;;
74939;SDS011;63505;45.226;37.908;2022-10-10T13:41:11;7.43;;;4.82;;
74939;SDS011;63505;45.226;37.908;2022-10-10T13:43:38;7.55;;;4.25;;
74939;SDS011;63505;45.226;37.908;2022-10-10T13:46:05;10.30;;;4.35;;
74939;SDS011;63505;45.226;37.908;2022-10-10T13:51:07;9.27;;;4.75;;
74939;SDS011;63505;45.226;37.908;2022-10-10T13:53:47;8.88;;;4.85;;
74939;SDS011;63505;45.226;37.908;2022-10-10T13:56:27;8.32;;;4.50;;
74939;SDS011;63505;45.226;37.908;2022-10-10T13:59:06;9.90;;;5.10;;
74939;SDS011;63505;45.226;37.908;2022-10-10T14:01:42;14.18;;;4.30;;
74939;SDS011;63505;45.226;37.908;2022-10-10T14:06:55;7.88;;;4.43;;
74939;SDS011;63505;45.226;37.908;2022-10-10T14:09:43;8.73;;;4.65;;
74939;SDS011;63505;45.226;37.908;2022-10-10T14:12:15;9.20;;;3.97;;
74939;SDS011;63505;45.226;37.908;2022-10-10T14:14:50;7.43;;;4.20;;
74939;SDS011;63505;45.226;37.908;2022-10-10T14:17:18;7.25;;;3.80;;
74939;SDS011;63505;45.226;37.908;2022-10-10T14:19:45;7.05;;;4.07;;
74939;SDS011;63505;45.226;37.908;2022-10-10T14:22:12;8.63;;;3.85;;
74939;SDS011;63505;45.226;37.908;2022-10-10T14:24:38;6.68;;;3.50;;
74939;SDS011;63505;45.226;37.908;2022-10-10T14:27:14;7.93;;;4.53;;
74939;SDS011;63505;45.226;37.908;2022-10-10T14:29:44;10.23;;;4.60;;
74939;SDS011;63505;45.226;37.908;2022-10-10T14:32:11;5.75;;;3.17;;
74939;SDS011;63505;45.226;37.908;2022-10-10T14:34:38;6.95;;;4.05;;
74939;SDS011;63505;45.226;37.908;2022-10-10T14:37:05;12.15;;;4.40;;
74939;SDS011;63505;45.226;37.908;2022-10-10T14:39:35;8.43;;;3.53;;
74939;SDS011;63505;45.226;37.908;2022-10-10T14:42:01;7.93;;;3.85;;
74939;SDS011;63505;45.226;37.908;2022-10-10T14:44:27;7.05;;;3.70;;
74939;SDS011;63505;45.226;37.908;2022-10-10T14:46:53;10.30;;;4.82;;
74939;SDS011;63505;45.226;37.908;2022-10-10T14:49:19;5.22;;;3.33;;
74939;SDS011;63505;45.226;37.908;2022-10-10T14:51:46;8.48;;;3.97;;
74939;SDS011;63505;45.226;37.908;2022-10-10T14:54:12;8.05;;;4.25;;
74939;SDS011;63505;45.226;37.908;2022-10-10T14:56:39;10.48;;;4.70;;
74939;SDS011;63505;45.226;37.908;2022-10-10T14:59:19;7.00;;;4.10;;
74939;SDS011;63505;45.226;37.908;2022-10-10T15:01:46;7.75;;;4.30;;
74939;SDS011;63505;45.226;37.908;2022-10-10T15:04:13;7.88;;;4.57;;
74939;SDS011;63505;45.226;37.908;2022-10-10T15:06:39;6.00;;;3.80;;
74939;SDS011;63505;45.226;37.908;2022-10-10T15:09:06;10.48;;;5.18;;
74939;SDS011;63505;45.226;37.908;2022-10-10T15:11:33;12.07;;;4.97;;
74939;SDS011;63505;45.226;37.908;2022-10-10T15:13:59;11.43;;;4.95;;
74939;SDS011;63505;45.226;37.908;2022-10-10T15:16:24;9.10;;;6.18;;
74939;SDS011;63505;45.226;37.908;2022-10-10T15:18:50;8.18;;;6.15;;
74939;SDS011;63505;45.226;37.908;2022-10-10T15:21:16;10.15;;;5.70;;
74939;SDS011;63505;45.226;37.908;2022-10-10T15:23:42;8.07;;;5.40;;
74939;SDS011;63505;45.226;37.908;2022-10-10T15:26:08;13.70;;;6.00;;
74939;SDS011;63505;45.226;37.908;2022-10-10T15:28:34;8.88;;;5.68;;
74939;SDS011;63505;45.226;37.908;2022-10-10T15:31:00;15.88;;;5.70;;
74939;SDS011;63505;45.226;37.908;2022-10-10T15:33:26;11.52;;;5.60;;
74939;SDS011;63505;45.226;37.908;2022-10-10T15:35:59;16.00;;;7.07;;
74939;SDS011;63505;45.226;37.908;2022-10-10T15:38:27;10.00;;;6.45;;
74939;SDS011;63505;45.226;37.908;2022-10-10T15:41:07;15.85;;;6.80;;
74939;SDS011;63505;45.226;37.908;2022-10-10T15:43:44;9.65;;;5.28;;
74939;SDS011;63505;45.226;37.908;2022-10-10T15:46:16;9.27;;;5.97;;
74939;SDS011;63505;45.226;37.908;2022-10-10T15:48:43;9.25;;;5.63;;
74939;SDS011;63505;45.226;37.908;2022-10-10T15:51:10;9.70;;;5.55;;
74939;SDS011;63505;45.226;37.908;2022-10-10T15:53:36;8.25;;;5.68;;
74939;SDS011;63505;45.226;37.908;2022-10-10T15:56:06;8.73;;;5.45;;
74939;SDS011;63505;45.226;37.908;2022-10-10T15:58:33;12.50;;;5.57;;
74939;SDS011;63505;45.226;37.908;2022-10-10T16:00:59;9.77;;;5.43;;
74939;SDS011;63505;45.226;37.908;2022-10-10T16:03:24;10.98;;;5.93;;
74939;SDS011;63505;45.226;37.908;2022-10-10T16:05:51;16.02;;;6.25;;
74939;SDS011;63505;45.226;37.908;2022-10-10T16:08:16;13.05;;;6.60;;
74939;SDS011;63505;45.226;37.908;2022-10-10T16:10:43;9.27;;;6.65;;
74939;SDS011;63505;45.226;37.908;2022-10-10T16:13:09;11.35;;;6.78;;
74939;SDS011;63505;45.226;37.908;2022-10-10T16:15:35;15.13;;;6.10;;
74939;SDS011;63505;45.226;37.908;2022-10-10T16:18:01;11.50;;;6.47;;
74939;SDS011;63505;45.226;37.908;2022-10-10T16:20:27;15.25;;;6.90;;
74939;SDS011;63505;45.226;37.908;2022-10-10T16:22:53;11.95;;;6.30;;
74939;SDS011;63505;45.226;37.908;2022-10-10T16:25:19;11.90;;;7.18;;
74939;SDS011;63505;45.226;37.908;2022-10-10T16:27:45;12.27;;;7.30;;
74939;SDS011;63505;45.226;37.908;2022-10-10T16:30:11;12.07;;;7.45;;
74939;SDS011;63505;45.226;37.908;2022-10-10T16:32:37;12.38;;;6.05;;